createdAt,value
2022-09-16T00:03:56.811Z,2.80
2022-09-16T00:08:43.985Z,2.87
2022-09-16T00:13:27.422Z,3.13
2022-09-16T00:18:11.804Z,3.40
2022-09-16T00:22:55.305Z,3.27
2022-09-16T00:27:40.126Z,2.50
2022-09-16T00:32:24.309Z,2.17
2022-09-16T00:37:08.491Z,2.80
2022-09-16T00:41:52.127Z,3.43
2022-09-16T00:46:41.878Z,3.50
2022-09-16T00:51:26.230Z,4.40
2022-09-16T00:56:13.276Z,3.53
2022-09-16T01:00:57.049Z,2.90
2022-09-16T01:05:41.943Z,2.93
2022-09-16T01:10:27.130Z,3.53
2022-09-16T01:15:11.439Z,3.47
2022-09-16T01:20:21.411Z,3.50
2022-09-16T01:25:20.189Z,4.13
2022-09-16T01:30:22.375Z,4.47
2022-09-16T01:35:19.260Z,4.90
2022-09-16T01:40:10.984Z,4.53
2022-09-16T01:45:01.939Z,4.90
2022-09-16T01:49:52.785Z,6.77
2022-09-16T01:54:45.129Z,6.47
2022-09-16T01:59:35.796Z,6.13
2022-09-16T02:04:24.952Z,5.43
2022-09-16T02:09:14.676Z,5.50
2022-09-16T02:14:04.871Z,5.50
2022-09-16T02:18:54.429Z,6.27
2022-09-16T02:23:42.628Z,6.60
2022-09-16T02:28:29.498Z,6.40
2022-09-16T02:33:16.552Z,5.97
2022-09-16T02:38:03.759Z,5.47
2022-09-16T02:42:47.330Z,6.37
2022-09-16T02:47:33.749Z,6.03
2022-09-16T02:52:25.139Z,6.63
2022-09-16T02:57:10.408Z,7.47
2022-09-16T03:01:53.888Z,6.17
2022-09-16T03:06:37.562Z,5.93
2022-09-16T03:11:35.171Z,6.27
2022-09-16T03:16:26.107Z,6.37
2022-09-16T03:21:17.953Z,6.13
2022-09-16T03:26:05.849Z,5.73
2022-09-16T03:30:59.242Z,5.30
2022-09-16T03:35:46.799Z,5.43
2022-09-16T03:40:32.553Z,5.30
2022-09-16T03:45:18.406Z,5.27
2022-09-16T03:50:03.236Z,5.60
2022-09-16T03:54:46.590Z,5.70
2022-09-16T03:59:30.817Z,4.90
2022-09-16T04:04:14.286Z,3.80
2022-09-16T04:08:59.446Z,3.90
2022-09-16T04:13:43.044Z,4.13
2022-09-16T04:18:26.581Z,5.40
2022-09-16T04:23:10.188Z,5.80
2022-09-16T04:27:55.032Z,5.97
2022-09-16T04:32:38.453Z,6.00
2022-09-16T04:37:21.847Z,7.13
2022-09-16T04:42:06.444Z,6.57
2022-09-16T04:46:51.240Z,6.77
2022-09-16T04:51:34.707Z,8.57
2022-09-16T04:56:20.384Z,9.27
2022-09-16T05:01:08.440Z,10.20
2022-09-16T05:05:53.589Z,11.20
2022-09-16T05:10:37.007Z,11.13
2022-09-16T05:15:20.906Z,10.97
2022-09-16T05:20:05.436Z,10.20
2022-09-16T05:24:50.217Z,8.20
2022-09-16T05:29:33.584Z,8.70
2022-09-16T05:34:18.730Z,5.90
2022-09-16T05:39:22.249Z,5.97
2022-09-16T05:44:07.936Z,6.80
2022-09-16T05:48:51.796Z,6.10
2022-09-16T05:53:36.293Z,5.00
2022-09-16T05:58:19.778Z,5.30
2022-09-16T06:03:04.589Z,4.83
2022-09-16T06:07:47.961Z,6.87
2022-09-16T06:12:31.358Z,7.30
2022-09-16T06:17:14.851Z,7.63
2022-09-16T06:22:02.207Z,7.40
2022-09-16T06:26:46.828Z,7.30
2022-09-16T06:31:30.758Z,7.40
2022-09-16T06:36:16.507Z,6.77
2022-09-16T06:41:01.878Z,7.50
2022-09-16T06:45:45.310Z,7.50
2022-09-16T06:50:28.744Z,7.47
2022-09-16T06:55:12.163Z,7.50
2022-09-16T06:59:56.967Z,6.70
2022-09-16T07:04:40.951Z,7.07
2022-09-16T07:09:24.602Z,6.73
2022-09-16T07:14:09.529Z,6.60
2022-09-16T07:19:00.752Z,6.00
2022-09-16T07:23:45.646Z,4.10
2022-09-16T07:28:29.095Z,3.83
2022-09-16T07:33:12.445Z,3.13
2022-09-16T07:37:57.304Z,2.83
2022-09-16T07:42:40.680Z,2.37
2022-09-16T07:47:24.367Z,2.70
2022-09-16T07:52:07.931Z,2.70
2022-09-16T07:56:52.659Z,2.47
2022-09-16T08:01:38.989Z,2.23
2022-09-16T08:06:28.155Z,2.20
2022-09-16T08:11:12.607Z,1.77
2022-09-16T08:16:01.027Z,2.03
2022-09-16T08:20:44.476Z,1.70
2022-09-16T08:25:27.997Z,2.27
2022-09-16T08:30:12.694Z,1.83
2022-09-16T08:34:57.574Z,2.03
2022-09-16T08:39:41.175Z,2.10
2022-09-16T08:44:35.430Z,1.55
2022-09-16T08:49:27.001Z,1.95
2022-09-16T08:54:19.785Z,1.73
2022-09-16T08:59:07.259Z,2.00
2022-09-16T09:03:50.961Z,2.03
2022-09-16T09:08:46.208Z,2.40
2022-09-16T09:13:49.490Z,2.22
2022-09-16T09:18:41.313Z,2.00
2022-09-16T09:23:45.508Z,1.85
2022-09-16T09:28:49.250Z,2.13
2022-09-16T09:33:46.699Z,1.80
2022-09-16T09:38:50.839Z,2.30
2022-09-16T09:48:34.913Z,2.60
2022-09-16T09:53:25.285Z,2.42
2022-09-16T09:58:25.231Z,2.13
2022-09-16T10:03:17.908Z,2.58
2022-09-16T10:08:05.341Z,2.67
2022-09-16T10:12:48.907Z,2.30
2022-09-16T10:17:34.193Z,2.70
2022-09-16T10:22:25.506Z,3.00
2022-09-16T10:27:21.802Z,3.92
2022-09-16T10:32:10.898Z,2.35
2022-09-16T10:37:02.992Z,2.38
2022-09-16T10:41:47.922Z,2.40
2022-09-16T10:46:32.418Z,2.55
2022-09-16T10:51:24.405Z,2.50
2022-09-16T10:56:17.085Z,2.38
2022-09-16T11:01:21.117Z,3.00
2022-09-16T11:06:25.751Z,2.53
2022-09-16T11:11:18.417Z,2.70
2022-09-16T11:16:31.555Z,2.40
2022-09-16T11:21:44.000Z,2.58
2022-09-16T11:26:37.015Z,2.10
2022-09-16T11:31:32.640Z,2.10
2022-09-16T11:36:35.820Z,1.73
2022-09-16T11:41:28.884Z,2.00
2022-09-16T11:46:19.302Z,2.70
2022-09-16T11:51:12.331Z,2.20
2022-09-16T11:56:01.080Z,2.00
2022-09-16T12:00:45.546Z,2.00
2022-09-16T12:05:34.273Z,2.30
2022-09-16T12:10:24.142Z,2.80
2022-09-16T12:15:15.980Z,2.57
2022-09-16T12:20:04.662Z,2.60
2022-09-16T12:24:55.066Z,2.73
2022-09-16T12:29:48.250Z,3.07
2022-09-16T12:34:36.239Z,2.93
2022-09-16T12:39:19.714Z,3.50
2022-09-16T12:44:35.055Z,3.43
2022-09-16T12:50:09.771Z,3.53
2022-09-16T12:55:25.462Z,3.50
2022-09-16T13:00:22.388Z,3.73
2022-09-16T13:05:15.321Z,3.47
2022-09-16T13:10:04.018Z,3.53
2022-09-16T13:14:49.331Z,3.57
2022-09-16T13:19:48.569Z,3.50
2022-09-16T13:24:38.004Z,3.20
2022-09-16T13:29:44.333Z,3.57
2022-09-16T13:34:27.933Z,4.03
2022-09-16T13:39:16.465Z,4.50
2022-09-16T13:44:01.002Z,4.07
2022-09-16T13:48:47.853Z,4.30
2022-09-16T13:53:33.276Z,2.47
2022-09-16T13:58:25.942Z,1.70
2022-09-16T14:03:28.215Z,1.20
2022-09-16T14:08:19.678Z,1.40
2022-09-16T14:13:11.218Z,1.40
2022-09-16T14:18:02.166Z,1.47
2022-09-16T14:22:46.125Z,1.37
2022-09-16T14:27:31.163Z,1.53
2022-09-16T14:32:15.527Z,1.90
2022-09-16T14:37:00.623Z,2.10
2022-09-16T14:41:48.379Z,1.60
2022-09-16T14:46:31.922Z,1.33
2022-09-16T14:51:22.523Z,1.60
2022-09-16T14:56:07.614Z,1.53
2022-09-16T15:00:55.644Z,1.40
2022-09-16T15:05:41.750Z,1.33
2022-09-16T15:10:32.694Z,1.90
2022-09-16T15:15:27.757Z,2.10
2022-09-16T15:20:21.875Z,4.70
2022-09-16T15:25:05.850Z,1.90
2022-09-16T15:29:51.797Z,2.50
2022-09-16T15:34:37.060Z,2.50
2022-09-16T15:39:26.795Z,2.53
2022-09-16T15:44:10.819Z,2.60
2022-09-16T15:48:57.485Z,2.53
2022-09-16T15:53:47.391Z,2.77
2022-09-16T15:58:41.195Z,2.80
2022-09-16T16:03:24.861Z,3.10
2022-09-16T16:08:10.121Z,3.13
2022-09-16T16:12:57.281Z,3.00
2022-09-16T16:17:41.188Z,2.70
2022-09-16T16:22:24.633Z,3.10
2022-09-16T16:27:10.445Z,3.37
2022-09-16T16:32:09.725Z,3.33
2022-09-16T16:36:53.227Z,3.40
2022-09-16T16:41:36.638Z,3.60
2022-09-16T16:46:20.241Z,4.47
2022-09-16T16:51:07.913Z,3.70
2022-09-16T16:55:51.766Z,8.53
2022-09-16T17:00:35.588Z,12.20
2022-09-16T17:05:19.025Z,8.00
2022-09-16T17:10:03.900Z,6.43
2022-09-16T17:14:47.467Z,6.17
2022-09-16T17:19:32.462Z,7.00
2022-09-16T17:24:15.947Z,7.50
2022-09-16T17:29:06.496Z,6.50
2022-09-16T17:33:56.422Z,5.27
2022-09-16T17:38:40.019Z,7.60
2022-09-16T17:43:30.110Z,6.20
2022-09-16T17:48:17.364Z,8.20
2022-09-16T17:53:00.811Z,8.20
2022-09-16T17:57:44.296Z,8.07
2022-09-16T18:02:27.782Z,7.43
2022-09-16T18:07:12.752Z,8.10
2022-09-16T18:11:58.508Z,6.33
2022-09-16T18:16:42.745Z,6.87
2022-09-16T18:21:27.441Z,5.90
2022-09-16T18:26:14.177Z,5.90
2022-09-16T18:31:04.885Z,5.17
2022-09-16T18:35:48.614Z,4.83
2022-09-16T18:40:35.145Z,5.17
2022-09-16T18:45:23.649Z,4.00
2022-09-16T18:50:08.084Z,4.27
2022-09-16T18:54:51.567Z,4.60
2022-09-16T18:59:36.869Z,4.27
2022-09-16T19:04:24.558Z,4.83
2022-09-16T19:09:09.838Z,5.50
2022-09-16T19:13:53.797Z,5.63
2022-09-16T19:18:37.707Z,5.27
2022-09-16T19:23:22.773Z,4.07
2022-09-16T19:28:06.481Z,3.70
2022-09-16T19:32:51.870Z,4.60
2022-09-16T19:37:35.569Z,5.00
2022-09-16T19:42:20.454Z,4.37
2022-09-16T19:47:04.032Z,4.40
2022-09-16T19:51:48.517Z,4.70
2022-09-16T19:56:34.251Z,3.27
2022-09-16T20:01:20.896Z,3.40
2022-09-16T20:06:07.334Z,3.30
2022-09-16T20:10:50.682Z,2.97
2022-09-16T20:15:34.301Z,2.90
2022-09-16T20:20:20.259Z,2.50
2022-09-16T20:25:22.009Z,2.77
2022-09-16T20:30:07.818Z,3.67
2022-09-16T20:34:51.189Z,2.90
2022-09-16T20:39:35.949Z,2.80
2022-09-16T20:44:19.569Z,3.20
2022-09-16T20:49:06.623Z,3.47
2022-09-16T20:53:53.142Z,3.50
2022-09-16T20:58:38.629Z,2.90
2022-09-16T21:03:22.037Z,3.57
2022-09-16T21:08:05.529Z,2.40
2022-09-16T21:12:49.224Z,3.60
2022-09-16T21:17:34.482Z,3.23
2022-09-16T21:22:18.010Z,3.17
2022-09-16T21:27:01.551Z,4.27
2022-09-16T21:31:45.169Z,5.00
2022-09-16T21:36:30.635Z,2.83
2022-09-16T21:41:15.612Z,2.60
2022-09-16T21:45:59.568Z,2.30
2022-09-16T21:50:43.001Z,2.10
2022-09-16T21:55:27.877Z,2.70
2022-09-16T22:00:13.433Z,2.40
2022-09-16T22:04:58.220Z,2.80
2022-09-16T22:09:41.661Z,2.70
2022-09-16T22:14:27.193Z,2.83
2022-09-16T22:19:13.004Z,2.97
2022-09-16T22:23:56.403Z,3.37
2022-09-16T22:28:40.838Z,3.40
2022-09-16T22:33:25.667Z,4.30
2022-09-16T22:38:09.081Z,4.40
2022-09-16T22:42:52.533Z,3.90
2022-09-16T22:47:36.000Z,3.57
2022-09-16T22:52:20.960Z,2.77
2022-09-16T23:09:13.206Z,2.67
2022-09-16T23:13:57.034Z,2.47
2022-09-16T23:18:50.873Z,3.03
2022-09-16T23:23:38.008Z,3.03
2022-09-16T23:28:28.444Z,3.30
2022-09-16T23:33:11.871Z,3.20
2022-09-16T23:37:56.995Z,1.93
2022-09-16T23:42:40.380Z,2.40
2022-09-16T23:47:25.816Z,2.10
2022-09-16T23:52:09.239Z,2.13
2022-09-16T23:56:52.610Z,1.40
